createdAt,value
2023-08-14T00:00:28.915Z,1012.251
2023-08-14T00:00:58.919Z,1012.244
2023-08-14T00:01:28.928Z,1012.241
2023-08-14T00:01:58.909Z,1012.245
2023-08-14T00:02:28.922Z,1012.235
2023-08-14T00:02:59.002Z,1012.237
2023-08-14T00:03:28.985Z,1012.246
2023-08-14T00:03:58.976Z,1012.25
2023-08-14T00:04:28.910Z,1012.261
2023-08-14T00:04:58.911Z,1012.263
2023-08-14T00:05:28.912Z,1012.257
2023-08-14T00:05:58.922Z,1012.267
2023-08-14T00:06:28.916Z,1012.274
2023-08-14T00:06:58.921Z,1012.286
2023-08-14T00:07:28.927Z,1012.29
2023-08-14T00:07:58.925Z,1012.303
2023-08-14T00:08:28.914Z,1012.297
2023-08-14T00:08:58.922Z,1012.27
2023-08-14T00:09:28.913Z,1012.255
2023-08-14T00:09:58.917Z,1012.253
2023-08-14T00:10:28.916Z,1012.24
2023-08-14T00:10:58.929Z,1012.23
2023-08-14T00:11:28.915Z,1012.223
2023-08-14T00:11:58.915Z,1012.223
2023-08-14T00:12:28.919Z,1012.204
2023-08-14T00:12:58.930Z,1012.191
2023-08-14T00:13:28.916Z,1012.186
2023-08-14T00:13:58.932Z,1012.176
2023-08-14T00:14:28.922Z,1012.173
2023-08-14T00:14:58.920Z,1012.171
2023-08-14T00:15:28.974Z,1012.169
2023-08-14T00:15:58.978Z,1012.176
2023-08-14T00:16:28.919Z,1012.173
2023-08-14T00:16:58.928Z,1012.179
2023-08-14T00:17:28.941Z,1012.185
2023-08-14T00:17:58.962Z,1012.188
2023-08-14T00:18:28.971Z,1012.187
2023-08-14T00:18:58.943Z,1012.193
2023-08-14T00:19:28.917Z,1012.2
2023-08-14T00:19:58.928Z,1012.203
2023-08-14T00:20:28.922Z,1012.189
2023-08-14T00:20:58.919Z,1012.205
2023-08-14T00:21:28.925Z,1012.206
2023-08-14T00:21:58.917Z,1012.204
2023-08-14T00:22:28.919Z,1012.2
2023-08-14T00:22:58.920Z,1012.205
2023-08-14T00:23:28.924Z,1012.199
2023-08-14T00:23:58.931Z,1012.187
2023-08-14T00:24:28.931Z,1012.193
2023-08-14T00:24:58.928Z,1012.197
2023-08-14T00:25:28.930Z,1012.189
2023-08-14T00:25:58.926Z,1012.188
2023-08-14T00:26:28.928Z,1012.182
2023-08-14T00:26:58.923Z,1012.177
2023-08-14T00:27:28.922Z,1012.175
2023-08-14T00:27:58.924Z,1012.165
2023-08-14T00:28:28.956Z,1012.16
2023-08-14T00:28:58.962Z,1012.158
2023-08-14T00:29:28.926Z,1012.155
2023-08-14T00:29:58.925Z,1012.161
2023-08-14T00:30:28.925Z,1012.153
2023-08-14T00:30:58.943Z,1012.16
2023-08-14T00:31:29.023Z,1012.163
2023-08-14T00:31:58.924Z,1012.161
2023-08-14T00:32:28.925Z,1012.162
2023-08-14T00:32:58.989Z,1012.162
2023-08-14T00:33:28.932Z,1012.166
2023-08-14T00:33:58.929Z,1012.186
2023-08-14T00:34:28.924Z,1012.191
2023-08-14T00:34:58.926Z,1012.196
2023-08-14T00:35:28.950Z,1012.188
2023-08-14T00:35:58.933Z,1012.202
2023-08-14T00:36:28.924Z,1012.207
2023-08-14T00:36:58.924Z,1012.216
2023-08-14T00:37:28.926Z,1012.223
2023-08-14T00:37:58.927Z,1012.219
2023-08-14T00:38:28.932Z,1012.209
2023-08-14T00:38:58.944Z,1012.208
2023-08-14T00:39:28.932Z,1012.207
2023-08-14T00:39:58.938Z,1012.202
2023-08-14T00:40:28.937Z,1012.196
2023-08-14T00:40:58.934Z,1012.182
2023-08-14T00:41:28.931Z,1012.157
2023-08-14T00:41:58.934Z,1012.149
2023-08-14T00:42:28.932Z,1012.143
2023-08-14T00:42:58.938Z,1012.141
2023-08-14T00:43:28.926Z,1012.14
2023-08-14T00:43:58.950Z,1012.137
2023-08-14T00:44:28.926Z,1012.144
2023-08-14T00:44:58.928Z,1012.145
2023-08-14T00:45:40.523Z,1012.145
2023-08-14T00:46:00.136Z,1012.144
2023-08-14T00:46:28.970Z,1012.138
2023-08-14T00:46:58.928Z,1012.139
2023-08-14T00:47:29.013Z,1012.137
2023-08-14T00:47:58.986Z,1012.152
2023-08-14T00:48:28.938Z,1012.165
2023-08-14T00:48:58.966Z,1012.172
2023-08-14T00:49:28.928Z,1012.178
2023-08-14T00:49:58.947Z,1012.199
2023-08-14T00:50:28.943Z,1012.216
2023-08-14T00:50:58.935Z,1012.227
2023-08-14T00:51:28.929Z,1012.233
2023-08-14T00:51:58.955Z,1012.252
2023-08-14T00:52:28.935Z,1012.277
2023-08-14T00:52:58.941Z,1012.296
2023-08-14T00:53:28.956Z,1012.313
2023-08-14T00:53:58.947Z,1012.317
2023-08-14T00:54:28.940Z,1012.323
2023-08-14T00:54:58.940Z,1012.334
2023-08-14T00:55:28.947Z,1012.334
2023-08-14T00:55:58.941Z,1012.322
2023-08-14T00:56:28.939Z,1012.312
2023-08-14T00:56:58.932Z,1012.299
2023-08-14T00:57:28.935Z,1012.279
2023-08-14T00:57:58.943Z,1012.266
2023-08-14T00:58:28.941Z,1012.259
2023-08-14T00:58:58.950Z,1012.248
2023-08-14T00:59:28.937Z,1012.226
2023-08-14T00:59:58.938Z,1012.218
2023-08-14T01:00:28.992Z,1012.203
2023-08-14T01:00:58.997Z,1012.199
2023-08-14T01:01:28.937Z,1012.191
2023-08-14T01:01:58.972Z,1012.182
2023-08-14T01:02:28.981Z,1012.172
2023-08-14T01:02:59.055Z,1012.162
2023-08-14T01:03:28.999Z,1012.168
2023-08-14T01:03:58.942Z,1012.167
2023-08-14T01:04:28.945Z,1012.168
2023-08-14T01:04:58.942Z,1012.173
2023-08-14T01:05:28.940Z,1012.187
2023-08-14T01:05:58.951Z,1012.184
2023-08-14T01:06:28.946Z,1012.182
2023-08-14T01:06:58.940Z,1012.181
2023-08-14T01:07:28.945Z,1012.179
2023-08-14T01:07:58.937Z,1012.17
2023-08-14T01:08:28.941Z,1012.164
2023-08-14T01:08:58.938Z,1012.165
2023-08-14T01:09:28.943Z,1012.163
2023-08-14T01:09:58.963Z,1012.169
2023-08-14T01:10:28.948Z,1012.164
2023-08-14T01:10:58.956Z,1012.167
2023-08-14T01:11:28.948Z,1012.161
2023-08-14T01:11:58.948Z,1012.143
2023-08-14T01:12:28.943Z,1012.133
2023-08-14T01:12:58.944Z,1012.12
2023-08-14T01:13:28.945Z,1012.122
2023-08-14T01:13:58.957Z,1012.115
2023-08-14T01:14:28.952Z,1012.107
2023-08-14T01:14:58.941Z,1012.099
2023-08-14T01:15:28.945Z,1012.1
2023-08-14T01:15:58.971Z,1012.102
2023-08-14T01:16:29.081Z,1012.093
2023-08-14T01:16:58.950Z,1012.085
2023-08-14T01:17:30.960Z,1012.083
2023-08-14T01:18:00.203Z,1012.082
2023-08-14T01:18:28.947Z,1012.084
2023-08-14T01:18:58.950Z,1012.087
2023-08-14T01:19:28.943Z,1012.087
2023-08-14T01:19:58.946Z,1012.087
2023-08-14T01:20:28.944Z,1012.094
2023-08-14T01:20:58.947Z,1012.093
2023-08-14T01:21:28.973Z,1012.099
2023-08-14T01:21:59.009Z,1012.097
2023-08-14T01:22:29.033Z,1012.103
2023-08-14T01:22:58.947Z,1012.111
2023-08-14T01:23:28.945Z,1012.121
2023-08-14T01:23:58.948Z,1012.115
2023-08-14T01:24:28.953Z,1012.118
2023-08-14T01:24:58.953Z,1012.122
2023-08-14T01:25:28.953Z,1012.124
2023-08-14T01:25:58.955Z,1012.129
2023-08-14T01:26:28.955Z,1012.131
2023-08-14T01:26:58.950Z,1012.131
2023-08-14T01:27:28.962Z,1012.122
2023-08-14T01:27:58.949Z,1012.118
2023-08-14T01:28:28.954Z,1012.106
2023-08-14T01:29:00.253Z,1012.1
2023-08-14T01:29:30.012Z,1012.101
2023-08-14T01:29:58.966Z,1012.103
2023-08-14T01:30:29.022Z,1012.105
2023-08-14T01:30:59.047Z,1012.112
2023-08-14T01:31:28.951Z,1012.115
2023-08-14T01:31:58.957Z,1012.129
2023-08-14T01:32:28.960Z,1012.126
2023-08-14T01:32:59.057Z,1012.13
2023-08-14T01:33:28.962Z,1012.135
2023-08-14T01:33:58.958Z,1012.127
2023-08-14T01:34:28.953Z,1012.134
2023-08-14T01:34:58.959Z,1012.138
2023-08-14T01:35:28.960Z,1012.144
2023-08-14T01:35:58.956Z,1012.14
2023-08-14T01:36:28.968Z,1012.158
2023-08-14T01:36:58.954Z,1012.172
2023-08-14T01:37:28.956Z,1012.178
2023-08-14T01:37:58.954Z,1012.194
2023-08-14T01:38:28.956Z,1012.208
2023-08-14T01:38:58.954Z,1012.215
2023-08-14T01:39:28.959Z,1012.208
2023-08-14T01:39:58.959Z,1012.209
2023-08-14T01:40:29.021Z,1012.208
2023-08-14T01:40:58.959Z,1012.199
2023-08-14T01:41:28.977Z,1012.201
2023-08-14T01:41:58.973Z,1012.197
2023-08-14T01:42:28.956Z,1012.19
2023-08-14T01:42:58.968Z,1012.174
2023-08-14T01:43:28.954Z,1012.163
2023-08-14T01:43:58.982Z,1012.154
2023-08-14T01:44:28.958Z,1012.155
2023-08-14T01:44:58.959Z,1012.142
2023-08-14T01:45:28.964Z,1012.136
2023-08-14T01:45:59.026Z,1012.135
2023-08-14T01:46:28.982Z,1012.137
2023-08-14T01:46:58.962Z,1012.135
2023-08-14T01:47:28.973Z,1012.14
2023-08-14T01:47:59.000Z,1012.132
2023-08-14T01:48:28.959Z,1012.123
2023-08-14T01:48:58.959Z,1012.115
2023-08-14T01:49:28.957Z,1012.105
2023-08-14T01:49:58.958Z,1012.098
2023-08-14T01:50:28.969Z,1012.091
2023-08-14T01:50:58.968Z,1012.082
2023-08-14T01:51:28.964Z,1012.075
2023-08-14T01:51:58.968Z,1012.085
2023-08-14T01:52:28.959Z,1012.102
2023-08-14T01:52:58.961Z,1012.129
2023-08-14T01:53:28.961Z,1012.148
2023-08-14T01:53:58.960Z,1012.167
2023-08-14T01:54:28.958Z,1012.173
2023-08-14T01:54:58.960Z,1012.188
2023-08-14T01:55:28.962Z,1012.192
2023-08-14T01:55:58.992Z,1012.196
2023-08-14T01:56:28.972Z,1012.205
2023-08-14T01:56:58.965Z,1012.214
2023-08-14T01:57:28.968Z,1012.225
2023-08-14T01:57:58.960Z,1012.224
2023-08-14T01:58:28.962Z,1012.224
2023-08-14T01:58:58.961Z,1012.237
2023-08-14T01:59:28.967Z,1012.239
2023-08-14T01:59:58.968Z,1012.237
2023-08-14T02:00:28.965Z,1012.25
2023-08-14T02:00:58.965Z,1012.242
2023-08-14T02:01:28.982Z,1012.24
2023-08-14T02:01:58.963Z,1012.237
2023-08-14T02:02:29.010Z,1012.231
2023-08-14T02:02:59.111Z,1012.227
2023-08-14T02:03:29.079Z,1012.227
2023-08-14T02:03:59.061Z,1012.233
2023-08-14T02:04:28.971Z,1012.244
2023-08-14T02:04:58.968Z,1012.253
2023-08-14T02:05:28.976Z,1012.265
2023-08-14T02:05:58.984Z,1012.282
2023-08-14T02:06:28.965Z,1012.288
2023-08-14T02:06:58.966Z,1012.295
2023-08-14T02:07:28.964Z,1012.296
2023-08-14T02:07:59.040Z,1012.296
2023-08-14T02:08:28.967Z,1012.289
2023-08-14T02:08:58.973Z,1012.279
2023-08-14T02:09:28.965Z,1012.267
2023-08-14T02:09:58.974Z,1012.261
2023-08-14T02:10:28.968Z,1012.251
2023-08-14T02:10:58.968Z,1012.235
2023-08-14T02:11:28.973Z,1012.221
2023-08-14T02:11:58.985Z,1012.219
2023-08-14T02:12:28.977Z,1012.216
2023-08-14T02:12:58.980Z,1012.207
2023-08-14T02:13:28.984Z,1012.185
2023-08-14T02:13:58.970Z,1012.18
2023-08-14T02:14:28.969Z,1012.175
2023-08-14T02:14:58.985Z,1012.177
2023-08-14T02:15:28.974Z,1012.18
2023-08-14T02:15:58.994Z,1012.176
2023-08-14T02:16:29.031Z,1012.182
2023-08-14T02:16:58.972Z,1012.189
2023-08-14T02:17:29.004Z,1012.201
2023-08-14T02:17:59.060Z,1012.214
2023-08-14T02:18:28.976Z,1012.222
2023-08-14T02:18:58.977Z,1012.22
2023-08-14T02:19:28.980Z,1012.236
2023-08-14T02:19:58.985Z,1012.241
2023-08-14T02:20:28.980Z,1012.24
2023-08-14T02:20:58.976Z,1012.237
2023-08-14T02:21:28.975Z,1012.239
2023-08-14T02:21:58.998Z,1012.244
2023-08-14T02:22:28.979Z,1012.249
2023-08-14T02:22:58.979Z,1012.256
2023-08-14T02:23:28.981Z,1012.267
2023-08-14T02:23:58.978Z,1012.268
2023-08-14T02:24:28.978Z,1012.28
2023-08-14T02:24:58.982Z,1012.266
2023-08-14T02:25:28.981Z,1012.255
2023-08-14T02:25:58.996Z,1012.243
2023-08-14T02:26:28.981Z,1012.234
2023-08-14T02:26:58.989Z,1012.217
2023-08-14T02:27:28.981Z,1012.206
2023-08-14T02:27:58.999Z,1012.188
2023-08-14T02:28:28.981Z,1012.176
2023-08-14T02:28:58.997Z,1012.159
2023-08-14T02:29:28.983Z,1012.149
2023-08-14T02:29:58.981Z,1012.133
2023-08-14T02:30:28.979Z,1012.13
2023-08-14T02:30:59.015Z,1012.131
2023-08-14T02:31:29.006Z,1012.123
2023-08-14T02:31:58.981Z,1012.116
2023-08-14T02:32:28.987Z,1012.122
2023-08-14T02:32:59.016Z,1012.119
2023-08-14T02:33:28.983Z,1012.115
2023-08-14T02:33:58.980Z,1012.113
2023-08-14T02:34:28.983Z,1012.123
2023-08-14T02:34:58.983Z,1012.131
2023-08-14T02:35:28.995Z,1012.141
2023-08-14T02:35:58.986Z,1012.141
2023-08-14T02:36:28.985Z,1012.141
2023-08-14T02:36:58.984Z,1012.137
2023-08-14T02:37:28.987Z,1012.12
2023-08-14T02:37:58.989Z,1012.121
2023-08-14T02:38:28.984Z,1012.115
2023-08-14T02:38:58.982Z,1012.108
2023-08-14T02:39:28.993Z,1012.113
2023-08-14T02:39:59.003Z,1012.114
2023-08-14T02:40:28.990Z,1012.116
2023-08-14T02:40:59.003Z,1012.11
2023-08-14T02:41:28.982Z,1012.101
2023-08-14T02:41:58.991Z,1012.096
2023-08-14T02:42:29.004Z,1012.09
2023-08-14T02:42:58.992Z,1012.068
2023-08-14T02:43:28.993Z,1012.07
2023-08-14T02:43:59.027Z,1012.07
2023-08-14T02:44:28.987Z,1012.058
2023-08-14T02:44:58.990Z,1012.06
2023-08-14T02:45:29.015Z,1012.058
2023-08-14T02:45:59.052Z,1012.065
2023-08-14T02:46:28.993Z,1012.067
2023-08-14T02:46:58.986Z,1012.065
2023-08-14T02:47:29.016Z,1012.065
2023-08-14T02:47:59.015Z,1012.057
2023-08-14T02:48:29.016Z,1012.058
2023-08-14T02:48:58.985Z,1012.051
2023-08-14T02:49:28.989Z,1012.052
2023-08-14T02:49:58.993Z,1012.054
2023-08-14T02:50:29.001Z,1012.057
2023-08-14T02:50:59.016Z,1012.058
2023-08-14T02:51:28.988Z,1012.058
2023-08-14T02:51:59.017Z,1012.055
2023-08-14T02:52:28.988Z,1012.057
2023-08-14T02:52:58.990Z,1012.055
2023-08-14T02:53:28.988Z,1012.065
2023-08-14T02:53:58.991Z,1012.075
2023-08-14T02:54:28.988Z,1012.099
2023-08-14T02:54:58.985Z,1012.133
2023-08-14T02:55:28.993Z,1012.169
2023-08-14T02:55:59.015Z,1012.203
2023-08-14T02:56:28.990Z,1012.216
2023-08-14T02:56:59.038Z,1012.228
2023-08-14T02:57:28.994Z,1012.241
2023-08-14T02:57:58.995Z,1012.255
2023-08-14T02:58:28.992Z,1012.26
2023-08-14T02:58:58.995Z,1012.267
2023-08-14T02:59:28.988Z,1012.273
2023-08-14T02:59:59.008Z,1012.28
2023-08-14T03:00:28.989Z,1012.263
2023-08-14T03:00:59.082Z,1012.262
2023-08-14T03:01:29.052Z,1012.256
2023-08-14T03:01:59.007Z,1012.253
2023-08-14T03:02:29.073Z,1012.249
2023-08-14T03:02:59.049Z,1012.254
2023-08-14T03:03:29.008Z,1012.258
2023-08-14T03:03:59.044Z,1012.263
2023-08-14T03:04:28.992Z,1012.274
2023-08-14T03:04:58.989Z,1012.279
2023-08-14T03:05:28.995Z,1012.291
2023-08-14T03:05:59.018Z,1012.293
2023-08-14T03:06:28.991Z,1012.297
2023-08-14T03:06:59.002Z,1012.282
2023-08-14T03:07:29.004Z,1012.285
2023-08-14T03:07:58.994Z,1012.28
2023-08-14T03:08:28.998Z,1012.28
2023-08-14T03:08:59.012Z,1012.3
2023-08-14T03:09:29.005Z,1012.313
2023-08-14T03:09:59.002Z,1012.335
2023-08-14T03:10:29.002Z,1012.353
2023-08-14T03:10:58.995Z,1012.379
2023-08-14T03:11:28.999Z,1012.391
2023-08-14T03:11:59.007Z,1012.408
2023-08-14T03:12:29.007Z,1012.42
2023-08-14T03:12:59.002Z,1012.426
2023-08-14T03:13:29.000Z,1012.426
2023-08-14T03:13:59.014Z,1012.412
2023-08-14T03:14:29.008Z,1012.429
2023-08-14T03:14:59.005Z,1012.421
2023-08-14T03:15:29.002Z,1012.404
2023-08-14T03:15:58.998Z,1012.39
2023-08-14T03:16:29.031Z,1012.391
2023-08-14T03:16:59.050Z,1012.391
2023-08-14T03:17:29.117Z,1012.393
2023-08-14T03:17:59.060Z,1012.393
2023-08-14T03:18:28.998Z,1012.392
2023-08-14T03:18:59.006Z,1012.39
2023-08-14T03:19:29.107Z,1012.387
2023-08-14T03:19:59.058Z,1012.39
2023-08-14T03:20:29.002Z,1012.376
2023-08-14T03:20:58.997Z,1012.371
2023-08-14T03:21:29.007Z,1012.367
2023-08-14T03:21:59.006Z,1012.372
2023-08-14T03:22:29.017Z,1012.37
2023-08-14T03:22:59.000Z,1012.37
2023-08-14T03:23:29.008Z,1012.37
2023-08-14T03:23:59.015Z,1012.382
2023-08-14T03:24:28.999Z,1012.386
2023-08-14T03:24:59.017Z,1012.393
2023-08-14T03:25:29.007Z,1012.388
2023-08-14T03:25:59.005Z,1012.401
2023-08-14T03:26:29.007Z,1012.4
2023-08-14T03:26:59.003Z,1012.401
2023-08-14T03:27:29.021Z,1012.404
2023-08-14T03:27:59.046Z,1012.43
2023-08-14T03:28:29.011Z,1012.458
2023-08-14T03:28:59.020Z,1012.483
2023-08-14T03:29:29.014Z,1012.501
2023-08-14T03:29:59.026Z,1012.518
2023-08-14T03:30:29.081Z,1012.53
2023-08-14T03:30:59.128Z,1012.55
2023-08-14T03:31:29.040Z,1012.583
2023-08-14T03:31:59.011Z,1012.603
2023-08-14T03:32:29.041Z,1012.625
2023-08-14T03:32:59.086Z,1012.644
2023-08-14T03:33:29.008Z,1012.657
2023-08-14T03:33:59.014Z,1012.663
2023-08-14T03:34:29.005Z,1012.662
2023-08-14T03:34:59.015Z,1012.651
2023-08-14T03:35:29.012Z,1012.643
2023-08-14T03:35:59.009Z,1012.633
2023-08-14T03:36:29.008Z,1012.63
2023-08-14T03:36:59.008Z,1012.625
2023-08-14T03:37:29.015Z,1012.615
2023-08-14T03:37:59.006Z,1012.612
2023-08-14T03:38:29.013Z,1012.607
2023-08-14T03:38:59.030Z,1012.613
2023-08-14T03:39:29.011Z,1012.612
2023-08-14T03:39:59.015Z,1012.616
2023-08-14T03:40:29.021Z,1012.624
2023-08-14T03:40:59.056Z,1012.635
2023-08-14T03:41:29.011Z,1012.637
2023-08-14T03:41:59.013Z,1012.64
2023-08-14T03:42:29.016Z,1012.639
2023-08-14T03:42:59.024Z,1012.636
2023-08-14T03:43:29.028Z,1012.628
2023-08-14T03:43:59.016Z,1012.612
2023-08-14T03:44:29.018Z,1012.599
2023-08-14T03:44:59.024Z,1012.577
2023-08-14T03:45:29.021Z,1012.562
2023-08-14T03:45:59.023Z,1012.548
2023-08-14T03:46:29.041Z,1012.528
2023-08-14T03:46:59.015Z,1012.511
2023-08-14T03:47:29.033Z,1012.484
2023-08-14T03:47:59.034Z,1012.458
2023-08-14T03:48:29.022Z,1012.442
2023-08-14T03:48:59.022Z,1012.432
2023-08-14T03:49:29.014Z,1012.423
2023-08-14T03:49:59.011Z,1012.425
2023-08-14T03:50:29.013Z,1012.416
2023-08-14T03:50:59.021Z,1012.419
2023-08-14T03:51:29.017Z,1012.394
2023-08-14T03:51:59.018Z,1012.375
2023-08-14T03:52:29.029Z,1012.356
2023-08-14T03:52:59.013Z,1012.343
2023-08-14T03:53:29.031Z,1012.342
2023-08-14T03:53:59.025Z,1012.349
2023-08-14T03:54:29.020Z,1012.343
2023-08-14T03:54:59.027Z,1012.361
2023-08-14T03:55:29.018Z,1012.37
2023-08-14T03:55:59.046Z,1012.386
2023-08-14T03:56:29.041Z,1012.394
2023-08-14T03:56:59.019Z,1012.423
2023-08-14T03:57:29.021Z,1012.43
2023-08-14T03:57:59.038Z,1012.457
2023-08-14T03:58:29.068Z,1012.47
2023-08-14T03:58:59.023Z,1012.498
2023-08-14T03:59:29.025Z,1012.513
2023-08-14T03:59:59.041Z,1012.542
2023-08-14T04:00:29.027Z,1012.542
2023-08-14T04:00:59.041Z,1012.545
2023-08-14T04:01:29.058Z,1012.54
2023-08-14T04:01:59.074Z,1012.532
2023-08-14T04:02:29.022Z,1012.526
2023-08-14T04:02:59.073Z,1012.52
2023-08-14T04:03:29.109Z,1012.495
2023-08-14T04:03:59.177Z,1012.492
2023-08-14T04:04:29.024Z,1012.5
2023-08-14T04:04:59.036Z,1012.488
2023-08-14T04:05:29.026Z,1012.481
2023-08-14T04:05:59.023Z,1012.479
2023-08-14T04:06:29.048Z,1012.482
2023-08-14T04:06:59.101Z,1012.475
2023-08-14T04:07:29.026Z,1012.47
2023-08-14T04:07:59.060Z,1012.458
2023-08-14T04:08:29.038Z,1012.452
2023-08-14T04:08:59.042Z,1012.455
2023-08-14T04:09:29.029Z,1012.459
2023-08-14T04:09:59.021Z,1012.451
2023-08-14T04:10:29.027Z,1012.461
2023-08-14T04:10:59.029Z,1012.469
2023-08-14T04:11:29.024Z,1012.469
2023-08-14T04:11:59.033Z,1012.482
2023-08-14T04:12:29.024Z,1012.482
2023-08-14T04:12:59.441Z,1012.492
2023-08-14T04:13:29.030Z,1012.475
2023-08-14T04:13:59.031Z,1012.481
2023-08-14T04:14:29.030Z,1012.484
2023-08-14T04:14:59.033Z,1012.485
2023-08-14T04:15:29.051Z,1012.496
2023-08-14T04:15:59.153Z,1012.51
2023-08-14T04:16:29.053Z,1012.514
2023-08-14T04:16:59.044Z,1012.526
2023-08-14T04:17:29.032Z,1012.538
2023-08-14T04:17:59.067Z,1012.543
2023-08-14T04:18:29.085Z,1012.55
2023-08-14T04:18:59.032Z,1012.563
2023-08-14T04:19:29.034Z,1012.575
2023-08-14T04:19:59.036Z,1012.592
2023-08-14T04:20:29.040Z,1012.6
2023-08-14T04:20:59.048Z,1012.614
2023-08-14T04:21:29.031Z,1012.617
2023-08-14T04:21:59.032Z,1012.624
2023-08-14T04:22:29.031Z,1012.628
2023-08-14T04:22:59.038Z,1012.634
2023-08-14T04:23:29.033Z,1012.63
2023-08-14T04:23:59.047Z,1012.637
2023-08-14T04:24:29.035Z,1012.642
2023-08-14T04:24:59.034Z,1012.653
2023-08-14T04:25:29.032Z,1012.666
2023-08-14T04:25:59.030Z,1012.684
2023-08-14T04:26:29.037Z,1012.697
2023-08-14T04:26:59.035Z,1012.707
2023-08-14T04:27:29.039Z,1012.727
2023-08-14T04:27:59.038Z,1012.752
2023-08-14T04:28:29.039Z,1012.773
2023-08-14T04:28:59.034Z,1012.8
2023-08-14T04:29:29.034Z,1012.823
2023-08-14T04:29:59.046Z,1012.846
2023-08-14T04:30:29.045Z,1012.869
2023-08-14T04:30:59.050Z,1012.873
2023-08-14T04:31:29.085Z,1012.866
2023-08-14T04:31:59.087Z,1012.862
2023-08-14T04:32:29.089Z,1012.867
2023-08-14T04:32:59.086Z,1012.862
2023-08-14T04:33:29.039Z,1012.859
2023-08-14T04:33:59.039Z,1012.865
2023-08-14T04:34:29.047Z,1012.876
2023-08-14T04:34:59.049Z,1012.88
2023-08-14T04:35:29.148Z,1012.887
2023-08-14T04:35:59.051Z,1012.895
2023-08-14T04:36:29.042Z,1012.895
2023-08-14T04:36:59.035Z,1012.901
2023-08-14T04:37:29.036Z,1012.909
2023-08-14T04:37:59.045Z,1012.914
2023-08-14T04:38:29.041Z,1012.92
2023-08-14T04:38:59.051Z,1012.918
2023-08-14T04:39:29.039Z,1012.92
2023-08-14T04:39:59.055Z,1012.935
2023-08-14T04:40:29.060Z,1012.954
2023-08-14T04:40:59.053Z,1012.974
2023-08-14T04:41:29.040Z,1012.99
2023-08-14T04:41:59.062Z,1013.006
2023-08-14T04:42:29.043Z,1013.004
2023-08-14T04:42:59.044Z,1013.009
2023-08-14T04:43:29.039Z,1013.008
2023-08-14T04:43:59.050Z,1013
2023-08-14T04:44:29.044Z,1012.988
2023-08-14T04:44:59.060Z,1012.972
2023-08-14T04:45:29.041Z,1012.966
2023-08-14T04:45:59.087Z,1012.97
2023-08-14T04:46:29.664Z,1012.974
2023-08-14T04:47:00.414Z,1013.004
2023-08-14T04:47:29.055Z,1013.032
2023-08-14T04:47:59.088Z,1013.054
2023-08-14T04:48:29.046Z,1013.079
2023-08-14T04:48:59.053Z,1013.094
2023-08-14T04:49:29.048Z,1013.097
2023-08-14T04:49:59.051Z,1013.096
2023-08-14T04:50:29.045Z,1013.106
2023-08-14T04:50:59.056Z,1013.117
2023-08-14T04:51:29.045Z,1013.122
2023-08-14T04:51:59.065Z,1013.12
2023-08-14T04:52:29.048Z,1013.116
2023-08-14T04:52:59.055Z,1013.115
2023-08-14T04:53:29.048Z,1013.105
2023-08-14T04:53:59.052Z,1013.091
2023-08-14T04:54:29.048Z,1013.077
2023-08-14T04:54:59.053Z,1013.064
2023-08-14T04:55:29.059Z,1013.058
2023-08-14T04:55:59.049Z,1013.056
2023-08-14T04:56:29.049Z,1013.048
2023-08-14T04:56:59.048Z,1013.036
2023-08-14T04:57:29.053Z,1013.016
2023-08-14T04:57:59.056Z,1013.008
2023-08-14T04:58:29.060Z,1013.004
2023-08-14T04:58:59.055Z,1012.996
2023-08-14T04:59:29.053Z,1012.982
2023-08-14T04:59:59.050Z,1012.977
2023-08-14T05:00:29.097Z,1012.957
2023-08-14T05:00:59.055Z,1012.952
2023-08-14T05:01:29.093Z,1012.945
2023-08-14T05:01:59.096Z,1012.944
2023-08-14T05:02:29.105Z,1012.945
2023-08-14T05:02:59.153Z,1012.938
2023-08-14T05:03:29.058Z,1012.935
2023-08-14T05:03:59.052Z,1012.939
2023-08-14T05:04:29.067Z,1012.95
2023-08-14T05:04:59.160Z,1012.959
2023-08-14T05:05:29.065Z,1012.969
2023-08-14T05:05:59.059Z,1012.99
2023-08-14T05:06:29.058Z,1013.016
2023-08-14T05:06:59.055Z,1013.046
2023-08-14T05:07:29.053Z,1013.078
2023-08-14T05:07:59.062Z,1013.112
2023-08-14T05:08:29.052Z,1013.135
2023-08-14T05:09:00.456Z,1013.15
2023-08-14T05:09:30.251Z,1013.158
2023-08-14T05:09:59.071Z,1013.154
2023-08-14T05:10:29.062Z,1013.148
2023-08-14T05:10:59.052Z,1013.141
2023-08-14T05:11:29.076Z,1013.128
2023-08-14T05:11:59.086Z,1013.121
2023-08-14T05:12:29.079Z,1013.109
2023-08-14T05:12:59.074Z,1013.103
2023-08-14T05:13:29.055Z,1013.109
2023-08-14T05:13:59.070Z,1013.111
2023-08-14T05:14:29.065Z,1013.11
2023-08-14T05:14:59.057Z,1013.117
2023-08-14T05:15:29.054Z,1013.128
2023-08-14T05:16:07.056Z,1013.144
2023-08-14T05:16:30.200Z,1013.146
2023-08-14T05:16:59.063Z,1013.16
2023-08-14T05:17:29.113Z,1013.187
2023-08-14T05:17:59.094Z,1013.198
2023-08-14T05:18:29.056Z,1013.209
2023-08-14T05:18:59.058Z,1013.213
2023-08-14T05:19:29.063Z,1013.214
2023-08-14T05:19:59.063Z,1013.206
2023-08-14T05:20:29.076Z,1013.192
2023-08-14T05:20:59.067Z,1013.181
2023-08-14T05:21:29.058Z,1013.172
2023-08-14T05:21:59.060Z,1013.168
2023-08-14T05:22:29.062Z,1013.158
2023-08-14T05:22:59.059Z,1013.145
2023-08-14T05:23:29.068Z,1013.141
2023-08-14T05:23:59.077Z,1013.132
2023-08-14T05:24:29.063Z,1013.123
2023-08-14T05:24:59.058Z,1013.118
2023-08-14T05:25:29.063Z,1013.107
2023-08-14T05:25:59.058Z,1013.111
2023-08-14T05:26:29.068Z,1013.119
2023-08-14T05:26:59.058Z,1013.111
2023-08-14T05:27:29.064Z,1013.102
2023-08-14T05:27:59.060Z,1013.095
2023-08-14T05:28:29.117Z,1013.099
2023-08-14T05:28:59.096Z,1013.099
2023-08-14T05:29:29.062Z,1013.11
2023-08-14T05:29:59.058Z,1013.104
2023-08-14T05:30:29.099Z,1013.098
2023-08-14T05:30:59.063Z,1013.104
2023-08-14T05:31:29.154Z,1013.089
2023-08-14T05:31:59.076Z,1013.08
2023-08-14T05:32:29.087Z,1013.071
2023-08-14T05:32:59.156Z,1013.082
2023-08-14T05:33:29.064Z,1013.093
2023-08-14T05:33:59.070Z,1013.097
2023-08-14T05:34:29.069Z,1013.088
2023-08-14T05:34:59.073Z,1013.09
2023-08-14T05:35:29.070Z,1013.105
2023-08-14T05:35:59.069Z,1013.095
2023-08-14T05:36:29.066Z,1013.099
2023-08-14T05:36:59.075Z,1013.088
2023-08-14T05:37:29.073Z,1013.088
2023-08-14T05:37:59.077Z,1013.095
2023-08-14T05:38:29.064Z,1013.101
2023-08-14T05:38:59.069Z,1013.117
2023-08-14T05:39:29.074Z,1013.148
2023-08-14T05:39:59.079Z,1013.196
2023-08-14T05:40:29.080Z,1013.246
2023-08-14T05:40:59.072Z,1013.297
2023-08-14T05:41:29.071Z,1013.348
2023-08-14T05:41:59.072Z,1013.392
2023-08-14T05:42:29.075Z,1013.434
2023-08-14T05:42:59.079Z,1013.492
2023-08-14T05:43:29.074Z,1013.542
2023-08-14T05:43:59.075Z,1013.603
2023-08-14T05:44:29.065Z,1013.644
2023-08-14T05:44:59.069Z,1013.668
2023-08-14T05:45:29.153Z,1013.669
2023-08-14T05:45:59.116Z,1013.675
2023-08-14T05:46:29.072Z,1013.659
2023-08-14T05:46:59.082Z,1013.661
2023-08-14T05:47:29.085Z,1013.663
2023-08-14T05:47:59.091Z,1013.688
2023-08-14T05:48:29.070Z,1013.694
2023-08-14T05:48:59.091Z,1013.687
2023-08-14T05:49:29.075Z,1013.659
2023-08-14T05:49:59.112Z,1013.626
2023-08-14T05:50:29.074Z,1013.594
2023-08-14T05:50:59.095Z,1013.565
2023-08-14T05:51:29.073Z,1013.553
2023-08-14T05:51:59.070Z,1013.542
2023-08-14T05:52:29.109Z,1013.533
2023-08-14T05:52:59.073Z,1013.519
2023-08-14T05:53:29.081Z,1013.497
2023-08-14T05:53:59.092Z,1013.463